Ana Sayfa
METAR-TAF:

METAR-TAF

Havaalanları :

Kano, Nijerya

Enlem: 12-03N, Boylam: 008-32E, yükseklik: 476 m

Güncel hava durumu gözlemi

Rapor saat 06:00 UTC de 1 saat ve 12 dakika önce yapıldı.
Rüzgar güneydan 9 kt
Sıcaklık 26°C
Nem 74%
Basınç 1014 hPa
Görüş mesafesi 10 km veya daha fazla
1500 m altında bulut yok ve kümülonimbus yok

METAR: DNKN 190600Z 18009KT CAVOK 26/21 Q1014 NOSIG

Saat: 08:12 (07:12 UTC)

Tahmin

Rapor saat 05:00 UTC de 2 saat ve 12 dakika önce yapıldı.
Ayın 19'si saat 06 UTC'den ayın 20'si saat 12 UTC'ye kadar geçerli Tahmin
Rüzgar güneybatıdan 10 kt
Görüş mesafesi 10 km veya daha fazla
1500 m altında bulut yok ve kümülonimbus yok
Geçici
ayın 19'si saat 14 UTC'den ayın 19'si saat 20 UTC'ye kadar
1300 ft yükseklikte parçalı bulutlu
2000 ft yükseklikte az bulutlu, Kümülonimbus.
gök gürültülü fırtına,

TAF: DNKN 190500Z 1906/2012 23010KT CAVOK TEMPO 1914/1920 TS SCT013 FEW020CB

4.000'den fazla havaalanı için hava durumu gözlemleri ve tahminleri (METAR ve TAF raporları).

Kullanılabilir istasyonlar harita üzerinde sarı ve kırmızı noktalarla gösterilir.

İstasyonun adını görmek için fareyi noktanın üzerinde gezdirin.

Sonrasında hava gözlem ve tahminlerini görmek için tıklayın.

Haritayı değiştirmek için: yaklaştırmak için siyah artı işaretli yeşil düğmeye ve uzaklaştırmak için de eksi işaretli düğmeye hızla tıklayın; bitişik haritalar için yeşil okları kullanın.


METAR-TAF: